Time;durP1;ratioP1;P1;durP2;ratioP2;P2;SDS_P1;SDS_P2;PMS_P1;PMS_P2;Temp;Humidity;BMP_temperature;BMP_pressure;BME280_temperature;BME280_humidity;BME280_pressure;Samples;Min_cycle;Max_cycle;Signal;HPM_P1;HPM_P2
2021/06/28 00:01:59;;;;;;;9.82;5.65;;;512.30;2380.80;;;;;;4975074;28;20030;-73
2021/06/28 00:04:25;;;;;;;8.32;5.70;;;512.20;2380.80;;;;;;4992906;28;20022;-81
2021/06/28 00:06:50;;;;;;;11.05;6.30;;;512.20;2380.80;;;;;;4991851;28;20049;-74
2021/06/28 00:09:16;;;;;;;11.30;6.18;;;512.20;2380.80;;;;;;4992788;28;20030;-79
2021/06/28 00:11:42;;;;;;;11.52;5.78;;;512.10;2380.80;;;;;;4992364;28;20083;-80
2021/06/28 00:14:08;;;;;;;9.68;5.68;;;512.00;2380.80;;;;;;4992534;28;20034;-78
2021/06/28 00:16:33;;;;;;;9.70;5.97;;;512.00;2380.80;;;;;;4991361;28;20030;-77
2021/06/28 00:19:02;;;;;;;11.02;5.88;;;512.10;2380.80;;;;;;4992723;28;20037;-73
2021/06/28 00:21:28;;;;;;;8.20;5.70;;;512.10;2380.80;;;;;;4992326;28;20034;-74
2021/06/28 00:23:53;;;;;;;10.52;5.80;;;512.20;2380.80;;;;;;4992130;28;20546;-74
2021/06/28 00:26:19;;;;;;;11.55;6.00;;;512.10;2380.80;;;;;;4993303;28;20028;-73
2021/06/28 00:28:45;;;;;;;11.30;6.07;;;512.20;2380.80;;;;;;4993674;28;20026;-77
2021/06/28 00:31:11;;;;;;;9.15;6.43;;;512.20;2380.80;;;;;;4993619;28;20027;-72
2021/06/28 00:33:36;;;;;;;8.95;6.30;;;512.20;2380.80;;;;;;4993182;28;20476;-83
2021/06/28 00:36:02;;;;;;;16.63;6.70;;;512.10;2380.80;;;;;;5003468;28;20025;-79
2021/06/28 00:38:28;;;;;;;17.42;7.13;;;512.20;2380.80;;;;;;5011102;28;20022;-79
2021/06/28 00:40:54;;;;;;;10.43;6.57;;;512.10;2380.80;;;;;;5010933;28;20108;-78
2021/06/28 00:43:19;;;;;;;16.55;7.50;;;512.10;2380.80;;;;;;5010856;28;20037;-84
2021/06/28 00:45:45;;;;;;;10.40;6.82;;;487.30;2380.80;;;;;;5010787;28;20025;-75
2021/06/28 00:48:13;;;;;;;12.25;6.65;;;487.30;2380.80;;;;;;5005235;28;20089;-83
2021/06/28 00:50:48;;;;;;;8.25;6.10;;;487.30;2380.80;;;;;;4983922;28;20503;-77
2021/06/28 00:53:16;;;;;;;7.47;5.90;;;487.30;2380.80;;;;;;5013266;28;20042;-73
2021/06/28 00:55:44;;;;;;;9.65;6.43;;;487.30;2380.80;;;;;;5007626;28;20021;-73
2021/06/28 00:58:10;;;;;;;9.18;6.40;;;487.30;2380.80;;;;;;5011557;28;20034;-78
2021/06/28 01:00:36;;;;;;;10.00;6.53;;;487.30;2380.80;;;;;;5011615;28;20026;-72
2021/06/28 01:03:03;;;;;;;7.88;6.18;;;487.30;2380.80;;;;;;5009795;28;20026;-73
2021/06/28 01:05:32;;;;;;;8.82;6.65;;;487.10;2380.80;;;;;;4989758;28;20050;-74
2021/06/28 01:07:59;;;;;;;9.55;6.38;;;487.00;2380.80;;;;;;4992516;28;20023;-73
2021/06/28 01:10:25;;;;;;;12.13;5.80;;;487.00;2380.80;;;;;;4990852;28;20033;-73
2021/06/28 01:12:52;;;;;;;8.52;5.75;;;487.00;2380.80;;;;;;4990810;28;20434;-73
2021/06/28 01:15:19;;;;;;;8.35;5.40;;;487.10;2380.80;;;;;;4990674;28;20023;-72
2021/06/28 01:17:46;;;;;;;8.05;5.60;;;487.10;2380.80;;;;;;4990730;28;20026;-73
2021/06/28 01:20:16;;;;;;;7.15;5.18;;;487.00;2380.80;;;;;;4990607;28;20027;-73
2021/06/28 01:22:45;;;;;;;8.30;5.13;;;487.00;2380.80;;;;;;4990881;28;20022;-72
2021/06/28 01:25:13;;;;;;;7.75;5.10;;;486.90;2380.80;;;;;;4989480;28;20037;-74
2021/06/28 01:27:40;;;;;;;8.05;5.07;;;486.90;2380.80;;;;;;4990429;28;20023;-74
2021/06/28 01:30:08;;;;;;;8.40;5.00;;;486.80;2380.80;;;;;;4990578;28;20113;-74
2021/06/28 01:32:35;;;;;;;7.28;5.05;;;486.80;2380.80;;;;;;4990401;28;20022;-73
2021/06/28 01:35:00;;;;;;;9.90;4.60;;;486.90;2380.80;;;;;;4989403;28;20374;-74
2021/06/28 01:37:28;;;;;;;8.23;4.70;;;486.90;2380.80;;;;;;4990280;28;20029;-75
2021/06/28 01:39:57;;;;;;;6.45;4.50;;;486.90;2380.80;;;;;;4989004;28;20038;-73
2021/06/28 01:42:24;;;;;;;6.77;4.40;;;486.70;2380.80;;;;;;4990556;28;20108;-71
2021/06/28 01:44:51;;;;;;;6.07;4.32;;;486.60;2380.80;;;;;;4990434;28;20479;-73
2021/06/28 01:47:17;;;;;;;7.07;4.50;;;486.60;2380.80;;;;;;4990197;28;20027;-74
2021/06/28 01:49:44;;;;;;;6.75;4.57;;;486.60;2380.80;;;;;;4990293;28;20076;-73
2021/06/28 01:52:09;;;;;;;6.65;4.32;;;486.50;2380.80;;;;;;4990358;28;20114;-73
2021/06/28 01:54:36;;;;;;;7.53;4.25;;;486.60;2380.80;;;;;;4984092;28;20060;-73
2021/06/28 01:57:02;;;;;;;5.88;4.30;;;486.80;2380.80;;;;;;4990405;28;20407;-74
2021/06/28 01:59:31;;;;;;;6.68;4.40;;;486.70;2380.80;;;;;;4990003;28;20031;-74
2021/06/28 02:01:58;;;;;;;6.70;4.70;;;486.60;2380.80;;;;;;4990100;28;20019;-73
2021/06/28 02:04:25;;;;;;;6.63;4.55;;;486.60;2380.80;;;;;;4990137;28;20135;-74
2021/06/28 02:06:51;;;;;;;6.90;4.65;;;486.60;2380.80;;;;;;4990406;28;20034;-74
2021/06/28 02:09:17;;;;;;;8.25;4.70;;;486.60;2380.80;;;;;;4990476;28;20035;-74
2021/06/28 02:11:44;;;;;;;9.13;5.10;;;486.70;2380.80;;;;;;4990063;28;20126;-72
2021/06/28 02:14:10;;;;;;;7.32;4.90;;;486.70;2380.80;;;;;;4989962;28;20481;-74
2021/06/28 02:16:36;;;;;;;6.70;5.15;;;486.70;2380.80;;;;;;4989990;28;20038;-73
2021/06/28 02:19:02;;;;;;;7.13;4.82;;;486.70;2380.80;;;;;;4990066;28;20042;-74
2021/06/28 02:21:28;;;;;;;9.30;4.85;;;486.70;2380.80;;;;;;4990234;28;20075;-74
2021/06/28 02:23:54;;;;;;;6.10;4.75;;;486.60;2380.80;;;;;;4990053;28;20037;-72
2021/06/28 02:26:19;;;;;;;6.70;4.78;;;486.60;2380.80;;;;;;4990083;28;20483;-71
2021/06/28 02:28:49;;;;;;;7.10;4.93;;;486.60;2380.80;;;;;;4989812;28;20026;-73
2021/06/28 02:31:22;;;;;;;7.77;5.40;;;486.60;2380.80;;;;;;4990311;28;20033;-73
2021/06/28 02:33:50;;;;;;;6.75;4.80;;;486.70;2380.80;;;;;;4990046;28;20095;-73
2021/06/28 02:36:17;;;;;;;8.10;5.22;;;486.60;2380.80;;;;;;4989971;28;20037;-73
2021/06/28 02:38:44;;;;;;;7.57;5.13;;;486.60;2380.80;;;;;;4991702;28;20023;-72
2021/06/28 02:41:11;;;;;;;6.20;4.85;;;486.50;2380.80;;;;;;4993113;28;20030;-73
2021/06/28 02:43:37;;;;;;;7.30;4.90;;;461.70;2380.80;;;;;;4993253;28;20019;-75
2021/06/28 02:46:03;;;;;;;8.30;5.38;;;461.60;2380.80;;;;;;4992986;28;20019;-73
2021/06/28 02:48:29;;;;;;;8.77;5.15;;;461.60;2380.80;;;;;;4993020;28;20073;-72
2021/06/28 02:50:55;;;;;;;5.78;4.47;;;461.50;2380.80;;;;;;4993136;28;20088;-74
2021/06/28 02:53:21;;;;;;;7.95;5.00;;;461.50;2380.80;;;;;;4993141;28;20402;-70
2021/06/28 02:55:50;;;;;;;8.30;4.65;;;461.50;2380.80;;;;;;4990057;28;20049;-73
2021/06/28 02:58:17;;;;;;;8.07;4.80;;;461.40;2380.80;;;;;;4984706;28;20037;-72
2021/06/28 03:00:43;;;;;;;6.30;4.70;;;461.40;2380.80;;;;;;4988764;28;20034;-73
2021/06/28 03:03:09;;;;;;;8.82;4.93;;;461.20;2380.80;;;;;;4990145;28;20030;-71
2021/06/28 03:05:36;;;;;;;9.88;4.97;;;461.20;2380.80;;;;;;4989268;28;20047;-72
2021/06/28 03:08:05;;;;;;;8.80;5.53;;;461.10;2380.80;;;;;;4992886;28;20415;-73
2021/06/28 03:10:32;;;;;;;14.10;7.03;;;461.10;2380.80;;;;;;4992741;28;20062;-73
2021/06/28 03:12:57;;;;;;;13.07;7.90;;;461.00;2380.80;;;;;;4992319;28;20022;-73
2021/06/28 03:15:23;;;;;;;8.30;5.40;;;461.10;2380.80;;;;;;4992670;28;20030;-73
2021/06/28 03:17:49;;;;;;;12.70;9.45;;;461.00;2380.80;;;;;;4992714;28;20064;-73
2021/06/28 03:20:16;;;;;;;10.98;6.18;;;460.90;2380.80;;;;;;4992306;28;20061;-73
2021/06/28 03:22:43;;;;;;;10.57;5.97;;;460.90;2380.80;;;;;;4992822;28;20118;-73
2021/06/28 03:25:11;;;;;;;9.07;5.65;;;460.90;2380.80;;;;;;4992610;28;20019;-73
2021/06/28 03:27:37;;;;;;;9.55;5.03;;;460.90;2380.80;;;;;;4992321;28;20052;-73
2021/06/28 03:30:08;;;;;;;6.90;4.60;;;460.90;2380.80;;;;;;4992188;28;20105;-73
2021/06/28 03:32:35;;;;;;;6.35;4.47;;;461.00;2380.80;;;;;;4994304;28;20025;-74
2021/06/28 03:35:02;;;;;;;7.60;4.82;;;461.00;2380.80;;;;;;5000483;28;20033;-74
2021/06/28 03:37:27;;;;;;;7.10;4.78;;;461.10;2380.80;;;;;;5003616;28;20018;-73
2021/06/28 03:39:53;;;;;;;7.50;4.43;;;461.20;2380.80;;;;;;4998297;28;20041;-73
2021/06/28 03:42:19;;;;;;;6.03;4.55;;;461.20;2380.80;;;;;;4975408;28;20030;-73
2021/06/28 03:44:45;;;;;;;5.78;4.40;;;461.20;2380.80;;;;;;4974662;28;20034;-74
2021/06/28 03:47:10;;;;;;;7.03;4.50;;;461.20;2380.80;;;;;;4976819;28;20023;-72
2021/06/28 03:49:36;;;;;;;7.03;4.60;;;461.20;2380.80;;;;;;4976175;28;20050;-74
2021/06/28 03:52:03;;;;;;;6.30;4.53;;;461.30;2380.80;;;;;;4978123;28;20034;-73
2021/06/28 03:54:28;;;;;;;5.90;4.28;;;461.40;2380.80;;;;;;4976844;28;20089;-74
2021/06/28 03:56:54;;;;;;;6.35;4.57;;;461.50;2380.80;;;;;;4974584;28;20034;-73
2021/06/28 03:59:20;;;;;;;6.03;4.35;;;461.70;2380.80;;;;;;4975370;28;20073;-73
2021/06/28 04:01:46;;;;;;;7.43;4.72;;;461.70;2380.80;;;;;;4972678;28;20377;-73
2021/06/28 04:04:11;;;;;;;7.15;4.85;;;486.50;2380.80;;;;;;4976669;28;20023;-74
2021/06/28 04:06:37;;;;;;;6.75;4.38;;;486.60;2380.80;;;;;;4976827;28;20098;-74
2021/06/28 04:09:04;;;;;;;7.88;4.47;;;486.70;2380.80;;;;;;4976326;28;20064;-72
2021/06/28 04:11:30;;;;;;;6.50;4.15;;;486.90;2380.80;;;;;;4977325;28;20023;-74
2021/06/28 04:13:57;;;;;;;6.75;4.25;;;487.00;2380.80;;;;;;4974082;28;20043;-74
2021/06/28 04:16:23;;;;;;;5.63;3.53;;;487.10;2380.80;;;;;;4978014;28;20019;-73
2021/06/28 04:18:49;;;;;;;5.60;3.67;;;487.20;2380.80;;;;;;4978628;28;20015;-74
2021/06/28 04:21:14;;;;;;;5.07;3.63;;;487.20;2380.80;;;;;;4974899;28;20033;-73
2021/06/28 04:23:40;;;;;;;6.13;3.63;;;487.30;2380.80;;;;;;4976406;28;20026;-73
2021/06/28 04:26:06;;;;;;;6.22;3.60;;;512.00;2380.80;;;;;;4973328;28;20030;-73
2021/06/28 04:28:32;;;;;;;5.00;3.70;;;512.10;2380.80;;;;;;4972888;28;20026;-74
2021/06/28 04:30:58;;;;;;;5.10;3.60;;;512.20;2380.80;;;;;;4971556;28;20026;-73
2021/06/28 04:33:24;;;;;;;6.75;3.70;;;512.30;2380.80;;;;;;4978124;28;20033;-73
2021/06/28 04:35:50;;;;;;;5.22;3.72;;;512.50;2380.80;;;;;;4977601;28;20049;-72
2021/06/28 04:38:16;;;;;;;6.35;3.80;;;512.60;2380.80;;;;;;4974430;28;20031;-72
2021/06/28 04:40:42;;;;;;;7.70;4.10;;;512.80;2380.80;;;;;;4976072;28;20034;-73
2021/06/28 04:43:07;;;;;;;4.78;4.10;;;512.90;2380.80;;;;;;4972884;28;20023;-73
2021/06/28 04:45:33;;;;;;;6.25;4.32;;;537.60;2406.40;;;;;;4972749;28;20434;-74
2021/06/28 04:47:59;;;;;;;7.40;5.10;;;537.80;2406.40;;;;;;4971035;28;20073;-74
2021/06/28 04:50:26;;;;;;;6.60;4.80;;;537.90;2406.40;;;;;;4977845;28;20026;-72
2021/06/28 04:52:54;;;;;;;5.82;4.65;;;537.90;2406.40;;;;;;4976970;28;20092;-74
2021/06/28 04:55:20;;;;;;;6.85;5.30;;;538.00;2406.40;;;;;;4974955;28;20023;-74
2021/06/28 04:57:47;;;;;;;7.82;5.32;;;538.40;2406.40;;;;;;4976062;28;20109;-73
2021/06/28 05:00:16;;;;;;;7.72;5.25;;;615.30;2432.00;;;;;;4972171;28;20377;-73
2021/06/28 05:02:43;;;;;;;6.20;5.50;;;742.60;2432.00;;;;;;4973002;28;20019;-72
2021/06/28 05:05:09;;;;;;;8.02;4.95;;;819.30;2432.00;;;;;;4976506;28;20252;-73
2021/06/28 05:07:35;;;;;;;6.75;4.90;;;845.20;2252.80;;;;;;5002658;28;20109;-73
2021/06/28 05:10:00;;;;;;;5.55;4.40;;;896.00;2048.00;;;;;;5010454;28;20112;-72
2021/06/28 05:12:26;;;;;;;5.75;4.68;;;921.90;1920.00;;;;;;5009580;28;20029;-71
2021/06/28 05:14:52;;;;;;;7.70;4.70;;;947.70;1766.40;;;;;;4994443;28;20038;-71
2021/06/28 05:17:18;;;;;;;5.30;4.30;;;973.00;1689.60;;;;;;4990563;28;20057;-73
2021/06/28 05:19:43;;;;;;;8.65;4.70;;;973.30;1638.40;;;;;;4990454;28;20100;-72
2021/06/28 05:22:09;;;;;;;5.47;4.70;;;998.50;1612.80;;;;;;4990706;28;20057;-72
2021/06/28 05:24:35;;;;;;;6.03;4.65;;;998.80;1561.60;;;;;;4990445;28;20061;-71
2021/06/28 05:27:02;;;;;;;6.50;4.70;;;998.40;1561.60;;;;;;4990423;28;20483;-72
2021/06/28 05:29:28;;;;;;;7.35;4.90;;;948.10;1561.60;;;;;;4990704;28;20472;-72
2021/06/28 05:31:54;;;;;;;10.52;5.05;;;870.90;1689.60;;;;;;4990479;28;20037;-71
2021/06/28 05:34:20;;;;;;;9.02;5.00;;;819.30;1817.60;;;;;;4990648;28;20038;-71
2021/06/28 05:36:46;;;;;;;5.78;4.47;;;793.60;1920.00;;;;;;4990834;28;20037;-72
2021/06/28 05:39:12;;;;;;;5.75;4.50;;;743.00;1971.20;;;;;;4990830;28;20389;-72
2021/06/28 05:41:37;;;;;;;5.82;4.40;;;717.40;2022.40;;;;;;4990534;28;20465;-73
2021/06/28 05:44:03;;;;;;;6.50;4.80;;;691.80;2099.20;;;;;;4990968;28;20026;-74
2021/06/28 05:46:29;;;;;;;7.00;4.40;;;691.40;2150.40;;;;;;4990617;28;20418;-72
2021/06/28 05:48:54;;;;;;;5.63;4.68;;;666.30;2227.20;;;;;;4989974;28;20058;-74
2021/06/28 05:51:20;;;;;;;5.30;4.20;;;666.10;2278.40;;;;;;4990295;28;20125;-72
2021/06/28 05:53:49;;;;;;;6.78;4.70;;;665.80;2329.60;;;;;;4990299;28;20147;-73
2021/06/28 05:56:15;;;;;;;5.82;4.45;;;640.80;2355.20;;;;;;4990420;28;20046;-72
2021/06/28 05:58:42;;;;;;;6.70;4.90;;;640.70;2406.40;;;;;;4990906;28;20029;-73
2021/06/28 06:01:09;;;;;;;6.28;4.80;;;640.50;2432.00;;;;;;4991647;28;20026;-74
2021/06/28 06:03:35;;;;;;;7.70;5.05;;;640.50;2432.00;;;;;;5003642;28;20039;-72
2021/06/28 06:06:01;;;;;;;6.88;4.78;;;640.20;2432.00;;;;;;5003944;28;20029;-73
2021/06/28 06:08:27;;;;;;;7.32;5.03;;;640.40;2432.00;;;;;;5006681;28;20022;-71
2021/06/28 06:10:56;;;;;;;6.28;5.15;;;640.30;2432.00;;;;;;5003479;28;20084;-74
2021/06/28 06:13:23;;;;;;;7.65;4.90;;;640.50;2432.00;;;;;;4994436;28;20110;-73
2021/06/28 06:15:49;;;;;;;6.60;4.75;;;640.40;2432.00;;;;;;4993602;28;20037;-72
2021/06/28 06:18:15;;;;;;;7.47;4.50;;;640.60;2432.00;;;;;;5008788;28;20018;-72
2021/06/28 06:20:41;;;;;;;6.55;4.57;;;640.80;2432.00;;;;;;5010904;28;20033;-72
2021/06/28 06:23:07;;;;;;;9.25;4.70;;;640.90;2432.00;;;;;;5008736;28;20025;-72
2021/06/28 06:25:33;;;;;;;7.32;4.45;;;665.60;2432.00;;;;;;5011145;28;20026;-72
2021/06/28 06:27:59;;;;;;;6.47;4.70;;;665.90;2432.00;;;;;;4991608;28;20031;-77
2021/06/28 06:30:24;;;;;;;6.43;4.20;;;665.90;2432.00;;;;;;4994427;28;20041;-72
2021/06/28 06:32:50;;;;;;;6.85;4.40;;;665.80;2432.00;;;;;;4987991;28;20031;-72
2021/06/28 06:35:20;;;;;;;7.88;4.30;;;666.20;2432.00;;;;;;4981377;28;20033;-72
2021/06/28 06:37:46;;;;;;;5.85;4.35;;;666.50;2432.00;;;;;;5012041;28;20030;-72
2021/06/28 06:40:13;;;;;;;5.80;4.43;;;666.50;2432.00;;;;;;5004640;28;20033;-72
2021/06/28 06:42:39;;;;;;;8.05;4.53;;;691.50;2432.00;;;;;;4987858;28;20163;-73
2021/06/28 06:45:06;;;;;;;5.60;4.40;;;691.60;2432.00;;;;;;5007807;28;20105;-74
2021/06/28 06:47:32;;;;;;;6.70;4.90;;;691.70;2432.00;;;;;;5008500;28;20022;-73
2021/06/28 06:49:57;;;;;;;5.65;4.35;;;691.70;2432.00;;;;;;5009044;28;20075;-71
2021/06/28 06:52:23;;;;;;;5.78;4.20;;;691.90;2432.00;;;;;;5006961;28;20022;-72
2021/06/28 06:54:49;;;;;;;5.95;4.63;;;691.90;2432.00;;;;;;5007127;28;20496;-72
2021/06/28 06:57:15;;;;;;;6.35;4.18;;;692.10;2432.00;;;;;;5004833;28;20117;-72
2021/06/28 06:59:40;;;;;;;5.25;4.30;;;716.80;2432.00;;;;;;5009548;28;20030;-72
2021/06/28 07:02:07;;;;;;;6.35;4.50;;;717.10;2432.00;;;;;;5004492;28;20023;-74
2021/06/28 07:04:32;;;;;;;6.55;4.72;;;717.20;2432.00;;;;;;5008709;28;20025;-74
2021/06/28 07:06:59;;;;;;;7.85;4.38;;;717.20;2432.00;;;;;;5009609;28;20022;-73
2021/06/28 07:09:27;;;;;;;6.22;4.30;;;717.60;2432.00;;;;;;5007351;28;20068;-74
2021/06/28 07:11:52;;;;;;;5.22;4.05;;;743.00;2406.40;;;;;;5008670;28;20038;-72
2021/06/28 07:14:18;;;;;;;5.50;3.97;;;793.70;2329.60;;;;;;4997779;28;20034;-73
2021/06/28 07:16:44;;;;;;;5.75;4.10;;;845.00;2227.20;;;;;;4992869;28;20422;-73
2021/06/28 07:19:10;;;;;;;5.18;3.88;;;922.50;1971.20;;;;;;4992446;28;20030;-75
2021/06/28 07:21:37;;;;;;;6.57;4.03;;;1024.40;1715.20;;;;;;4992661;28;20023;-74
2021/06/28 07:24:03;;;;;;;6.35;4.05;;;1075.60;1510.40;;;;;;4992020;28;20026;-74
2021/06/28 07:26:29;;;;;;;5.63;3.80;;;1127.00;1408.00;;;;;;4992522;28;20022;-73
2021/06/28 07:28:55;;;;;;;6.63;4.20;;;1152.00;1382.40;;;;;;4979779;28;20026;-73
2021/06/28 07:31:22;;;;;;;5.75;3.80;;;1178.20;1254.40;;;;;;4992946;28;20095;-73
2021/06/28 07:33:47;;;;;;;4.68;3.83;;;1177.80;1254.40;;;;;;4993273;28;20030;-74
2021/06/28 07:36:13;;;;;;;5.75;3.90;;;1152.70;1228.80;;;;;;4993055;28;20030;-74
2021/06/28 07:38:39;;;;;;;5.43;3.90;;;1127.10;1254.40;;;;;;4992829;28;20420;-77
2021/06/28 07:41:06;;;;;;;5.28;3.90;;;1075.70;1280.00;;;;;;4992490;28;20481;-75
2021/06/28 07:43:32;;;;;;;5.32;4.00;;;973.70;1382.40;;;;;;4992560;28;20109;-74
2021/06/28 07:45:58;;;;;;;5.20;3.90;;;947.30;1459.20;;;;;;4992706;28;20068;-72
2021/06/28 07:48:24;;;;;;;5.05;3.90;;;921.90;1510.40;;;;;;4992321;28;20035;-72
2021/06/28 07:50:50;;;;;;;6.13;3.80;;;921.80;1536.00;;;;;;4993373;28;20031;-74
2021/06/28 07:53:17;;;;;;;4.55;3.53;;;922.50;1484.80;;;;;;4992375;28;20057;-73
2021/06/28 07:55:44;;;;;;;5.93;3.83;;;973.20;1433.60;;;;;;4992093;28;20026;-73
2021/06/28 07:58:10;;;;;;;5.22;3.70;;;1024.90;1356.80;;;;;;4989014;28;20111;-72
2021/06/28 08:00:36;;;;;;;5.85;3.40;;;1127.30;1280.00;;;;;;4974879;28;20511;-73
2021/06/28 08:03:04;;;;;;;4.22;3.55;;;1203.30;1177.60;;;;;;4982430;28;20097;-72
2021/06/28 08:05:30;;;;;;;4.80;3.72;;;1254.40;1177.60;;;;;;4976854;28;20550;-73
2021/06/28 08:07:56;;;;;;;6.35;3.63;;;1280.00;1126.40;;;;;;4979928;28;20019;-72
2021/06/28 08:10:21;;;;;;;6.15;3.50;;;1280.50;1100.80;;;;;;4975437;28;20027;-73
2021/06/28 08:12:49;;;;;;;12.05;3.85;;;1280.40;1100.80;;;;;;5005556;28;20151;-72
2021/06/28 08:15:18;;;;;;;5.07;3.88;;;1331.70;1100.80;;;;;;4991847;28;20381;-74
2021/06/28 08:17:44;;;;;;;4.65;3.60;;;1331.20;1075.20;;;;;;4991543;28;20124;-74
2021/06/28 08:20:10;;;;;;;5.10;3.70;;;1305.60;1100.80;;;;;;4991240;28;20102;-73
2021/06/28 08:22:36;;;;;;;6.78;3.90;;;1305.90;1100.80;;;;;;4991617;28;20073;-73
2021/06/28 08:25:07;;;;;;;4.82;3.50;;;1306.30;1075.20;;;;;;4991491;28;20027;-74
2021/06/28 08:27:32;;;;;;;5.68;3.40;;;1331.60;1075.20;;;;;;4991640;28;20033;-74
2021/06/28 08:29:58;;;;;;;5.10;3.35;;;1357.70;1049.60;;;;;;4991405;28;20114;-74
2021/06/28 08:32:24;;;;;;;5.55;3.40;;;1357.40;1049.60;;;;;;4991524;28;20443;-74
2021/06/28 08:34:53;;;;;;;6.95;3.50;;;1331.90;1049.60;;;;;;4999948;28;20042;-74
2021/06/28 08:37:19;;;;;;;6.53;3.70;;;1254.80;1075.20;;;;;;5004570;28;20030;-72
2021/06/28 08:39:45;;;;;;;4.15;3.50;;;1255.10;1075.20;;;;;;5002405;28;20120;-71
2021/06/28 08:42:11;;;;;;;4.47;3.50;;;1254.60;1100.80;;;;;;5002339;28;20022;-70
2021/06/28 08:44:37;;;;;;;5.38;3.60;;;1203.20;1100.80;;;;;;5004271;28;20025;-75
2021/06/28 08:47:06;;;;;;;4.10;3.25;;;1100.90;1177.60;;;;;;5000437;28;20026;-73
2021/06/28 08:49:34;;;;;;;12.07;3.40;;;1024.50;1228.80;;;;;;5005049;28;20050;-72
2021/06/28 08:52:00;;;;;;;5.30;3.60;;;998.80;1254.40;;;;;;4999847;28;20031;-75
2021/06/28 08:54:26;;;;;;;5.68;3.33;;;973.40;1254.40;;;;;;5005042;28;20049;-75
2021/06/28 08:56:52;;;;;;;4.57;3.35;;;947.90;1254.40;;;;;;4999594;28;20018;-74
2021/06/28 08:59:18;;;;;;;4.88;3.50;;;947.30;1305.60;;;;;;5002849;28;20109;-73
2021/06/28 09:01:43;;;;;;;5.97;3.78;;;922.10;1356.80;;;;;;5003032;28;20539;-74
2021/06/28 09:04:09;;;;;;;4.43;3.55;;;896.70;1356.80;;;;;;4997079;28;20472;-73
2021/06/28 09:06:37;;;;;;;4.82;3.60;;;896.40;1382.40;;;;;;5004957;28;20126;-73
2021/06/28 09:09:12;;;;;;;6.85;3.88;;;896.40;1382.40;;;;;;4999163;28;20105;-72
2021/06/28 09:11:41;;;;;;;8.57;4.05;;;896.10;1356.80;;;;;;5004746;28;20357;-73
2021/06/28 09:14:09;;;;;;;4.80;3.78;;;871.30;1382.40;;;;;;4994639;28;20022;-72
2021/06/28 09:16:37;;;;;;;5.18;3.70;;;871.10;1408.00;;;;;;4990488;28;20030;-71
2021/06/28 09:19:08;;;;;;;5.43;3.83;;;870.70;1408.00;;;;;;4990727;28;20022;-72
2021/06/28 09:21:55;;;;;;;5.13;3.60;;;870.60;1408.00;;;;;;4990260;28;20423;-70
2021/06/28 09:24:44;;;;;;;5.50;3.78;;;870.50;1433.60;;;;;;4989283;28;20033;-71
2021/06/28 09:27:10;;;;;;;4.53;3.67;;;845.70;1459.20;;;;;;4990298;28;20021;-73
2021/06/28 09:29:50;;;;;;;4.65;3.72;;;845.60;1433.60;;;;;;4990382;28;20022;-71
2021/06/28 09:32:17;;;;;;;4.40;3.53;;;845.60;1459.20;;;;;;4989350;28;20180;-70
2021/06/28 09:34:48;;;;;;;5.40;3.65;;;845.60;1433.60;;;;;;4975052;28;20053;-71
2021/06/28 09:37:16;;;;;;;4.70;3.85;;;845.40;1484.80;;;;;;4977276;28;20059;-72
2021/06/28 09:39:48;;;;;;;6.63;3.88;;;845.00;1433.60;;;;;;4982766;28;20049;-71
2021/06/28 09:42:21;;;;;;;5.50;3.85;;;845.10;1484.80;;;;;;4993176;28;20476;-72
2021/06/28 09:44:57;;;;;;;4.28;3.22;;;845.00;1433.60;;;;;;4991834;28;20026;-72
2021/06/28 09:47:25;;;;;;;4.78;3.50;;;844.90;1433.60;;;;;;4992594;28;20251;-71
2021/06/28 09:49:59;;;;;;;5.70;3.58;;;845.00;1433.60;;;;;;4991434;28;20049;-71
2021/06/28 09:52:42;;;;;;;4.72;3.80;;;844.90;1484.80;;;;;;4993057;28;20030;-71
2021/06/28 09:55:21;;;;;;;6.07;3.60;;;844.90;1484.80;;;;;;4991567;28;20049;-72
2021/06/28 09:58:05;;;;;;;5.43;3.42;;;845.00;1433.60;;;;;;4993017;28;20026;-71
2021/06/28 10:00:33;;;;;;;5.10;3.60;;;845.20;1433.60;;;;;;4991286;28;20027;-72
2021/06/28 10:02:58;;;;;;;6.65;3.40;;;845.30;1433.60;;;;;;4992465;28;20022;-72
2021/06/28 10:05:30;;;;;;;5.18;3.40;;;845.40;1408.00;;;;;;4991466;28;20057;-72
2021/06/28 10:07:56;;;;;;;4.32;3.20;;;845.30;1382.40;;;;;;4993110;28;20384;-72
2021/06/28 10:10:30;;;;;;;5.20;3.20;;;845.40;1356.80;;;;;;4991502;28;20101;-71
2021/06/28 10:12:56;;;;;;;4.57;3.28;;;845.10;1382.40;;;;;;4992552;28;20036;-72
2021/06/28 10:15:30;;;;;;;4.55;3.35;;;845.20;1408.00;;;;;;4989889;28;20030;-71
2021/06/28 10:17:56;;;;;;;7.30;3.33;;;845.10;1356.80;;;;;;4989801;28;20053;-72
2021/06/28 10:20:25;;;;;;;5.20;3.15;;;845.00;1382.40;;;;;;4988942;28;20463;-71
2021/06/28 10:22:53;;;;;;;8.40;3.53;;;845.10;1382.40;;;;;;4980015;28;20469;-72
2021/06/28 10:25:22;;;;;;;4.55;2.90;;;845.20;1382.40;;;;;;4973054;28;20023;-71
2021/06/28 10:27:48;;;;;;;5.35;2.85;;;845.20;1433.60;;;;;;4980979;28;20014;-71
2021/06/28 10:30:17;;;;;;;5.90;2.95;;;845.20;1356.80;;;;;;4983552;28;20400;-71
2021/06/28 10:32:44;;;;;;;4.88;2.92;;;845.10;1408.00;;;;;;4974476;28;20520;-72
2021/06/28 10:35:15;;;;;;;4.15;2.78;;;845.10;1408.00;;;;;;4976766;28;20057;-77
2021/06/28 10:37:45;;;;;;;4.35;3.08;;;845.20;1356.80;;;;;;4982655;28;20061;-73
2021/06/28 10:40:18;;;;;;;4.38;3.08;;;845.20;1382.40;;;;;;4974135;28;20488;-72
2021/06/28 10:42:51;;;;;;;3.88;3.00;;;845.00;1356.80;;;;;;4981634;28;20031;-72
2021/06/28 10:45:36;;;;;;;5.85;3.13;;;845.00;1382.40;;;;;;4970681;28;20019;-71
2021/06/28 10:48:17;;;;;;;4.80;2.83;;;844.90;1331.20;;;;;;4983416;28;20023;-73
2021/06/28 10:51:05;;;;;;;5.03;2.80;;;845.10;1356.80;;;;;;4983620;28;20051;-72
2021/06/28 10:53:34;;;;;;;4.10;2.55;;;845.20;1356.80;;;;;;4979558;28;20034;-72
2021/06/28 10:59:05;;;;;;;5.30;2.78;;;845.20;1433.60;;;;;;4977529;28;20439;-71
2021/06/28 11:01:45;;;;;;;3.95;2.55;;;845.20;1382.40;;;;;;4988444;28;20152;-73
2021/06/28 11:04:16;;;;;;;4.97;2.80;;;845.30;1356.80;;;;;;4976522;28;20084;-71
2021/06/28 11:06:51;;;;;;;4.22;2.70;;;845.40;1331.20;;;;;;4974165;28;20507;-72
2021/06/28 11:09:17;;;;;;;4.55;2.72;;;845.30;1408.00;;;;;;4983684;28;20414;-72
2021/06/28 11:11:43;;;;;;;4.45;2.67;;;845.20;1408.00;;;;;;4974999;28;20027;-73
2021/06/28 11:14:09;;;;;;;3.90;2.60;;;845.30;1356.80;;;;;;4984902;28;20026;-70
2021/06/28 11:16:35;;;;;;;9.30;3.15;;;845.60;1356.80;;;;;;4984378;28;20023;-72
2021/06/28 11:19:21;;;;;;;9.13;2.90;;;870.40;1305.60;;;;;;4973921;28;20393;-71
2021/06/28 11:21:47;;;;;;;5.53;2.63;;;845.70;1280.00;;;;;;4986567;28;20041;-72
2021/06/28 11:24:29;;;;;;;4.35;2.75;;;870.40;1254.40;;;;;;4988959;28;20036;-72
2021/06/28 11:27:20;;;;;;;4.45;2.90;;;870.40;1228.80;;;;;;4991922;28;20037;-73
2021/06/28 11:29:51;;;;;;;6.30;3.00;;;845.70;1254.40;;;;;;4976518;28;20342;-73
2021/06/28 11:32:25;;;;;;;5.07;2.95;;;845.60;1280.00;;;;;;4977849;28;20068;-72
2021/06/28 11:34:51;;;;;;;5.28;2.90;;;845.40;1331.20;;;;;;4979409;28;20108;-72
2021/06/28 11:37:17;;;;;;;4.82;3.25;;;845.70;1254.40;;;;;;4979445;28;20031;-73
2021/06/28 11:39:57;;;;;;;6.35;2.90;;;870.60;1254.40;;;;;;4981089;28;20030;-71
2021/06/28 11:42:32;;;;;;;4.55;3.15;;;871.10;1280.00;;;;;;4985899;28;20024;-73
2021/06/28 11:45:08;;;;;;;8.98;4.28;;;896.30;1254.40;;;;;;4995624;28;20045;-72
2021/06/28 11:47:49;;;;;;;6.15;4.20;;;896.90;1203.20;;;;;;4987361;28;20393;-78
2021/06/28 11:50:35;;;;;;;7.20;4.82;;;921.90;1203.20;;;;;;4974972;28;20054;-72
2021/06/28 11:53:04;;;;;;;7.68;5.22;;;922.20;1203.20;;;;;;4983096;28;20026;-80
2021/06/28 11:55:33;;;;;;;6.97;3.47;;;922.20;1203.20;;;;;;4978738;28;20027;-80
2021/06/28 11:58:02;;;;;;;6.57;4.53;;;922.20;1254.40;;;;;;4977306;28;20031;-73
2021/06/28 12:00:29;;;;;;;8.93;5.30;;;922.40;1228.80;;;;;;4978781;28;20117;-78
2021/06/28 12:03:14;;;;;;;9.45;6.57;;;922.50;1228.80;;;;;;4975338;28;20031;-70
2021/06/28 12:05:41;;;;;;;8.63;6.03;;;947.30;1228.80;;;;;;4978597;28;20051;-72
2021/06/28 12:08:07;;;;;;;8.43;5.45;;;947.40;1228.80;;;;;;4980828;28;20080;-73
2021/06/28 12:10:33;;;;;;;8.50;4.57;;;947.30;1177.60;;;;;;4983060;28;20512;-72
2021/06/28 12:13:00;;;;;;;7.63;4.38;;;947.30;1177.60;;;;;;4979967;28;20030;-73
2021/06/28 12:15:27;;;;;;;6.68;5.03;;;947.30;1152.00;;;;;;4986250;28;20023;-72
2021/06/28 12:17:52;;;;;;;9.93;5.95;;;947.20;1177.60;;;;;;4973120;28;20042;-73
2021/06/28 12:20:19;;;;;;;15.45;10.68;;;947.30;1228.80;;;;;;4972768;28;20023;-72
2021/06/28 12:22:48;;;;;;;17.77;11.05;;;947.40;1228.80;;;;;;4976721;28;20023;-73